Time;durP1;ratioP1;P1;durP2;ratioP2;P2;SDS_P1;SDS_P2;PMS_P1;PMS_P2;Temp;Humidity;BMP_temperature;BMP_pressure;BME280_temperature;BME280_humidity;BME280_pressure;Samples;Min_cycle;Max_cycle;Signal;HPM_P1;HPM_P2
2022/06/16 00:01:41;;;;;;;;;;;14.50;99.90;;;;;;5094650;28;19912;-80
2022/06/16 00:04:06;;;;;;;;;;;14.50;99.90;;;;;;5093948;28;19950;-80
2022/06/16 00:06:32;;;;;;;;;;;14.50;99.90;;;;;;5094043;28;19908;-80
2022/06/16 00:08:58;;;;;;;;;;;14.50;99.90;;;;;;5094245;28;19931;-80
2022/06/16 00:11:24;;;;;;;;;;;14.50;99.90;;;;;;5093454;28;20006;-79
2022/06/16 00:13:51;;;;;;;;;;;14.50;99.90;;;;;;5093683;28;19912;-80
2022/06/16 00:16:16;;;;;;;;;;;14.60;99.90;;;;;;5092911;28;19918;-80
2022/06/16 00:18:42;;;;;;;;;;;14.50;99.90;;;;;;5094157;28;19908;-76
2022/06/16 00:21:08;;;;;;;;;;;14.40;99.90;;;;;;5093402;28;19923;-79
2022/06/16 00:23:33;;;;;;;;;;;14.30;99.90;;;;;;5093753;28;19919;-79
2022/06/16 00:25:59;;;;;;;;;;;14.30;99.90;;;;;;5093822;28;19909;-80
2022/06/16 00:28:25;;;;;;;;;;;14.30;99.90;;;;;;5091621;28;20007;-76
2022/06/16 00:30:50;;;;;;;;;;;14.30;99.90;;;;;;5093714;28;19920;-79
2022/06/16 00:33:16;;;;;;;;;;;14.30;99.90;;;;;;5093586;28;19916;-80
2022/06/16 00:35:41;;;;;;;;;;;14.30;99.90;;;;;;5093914;28;20007;-80
2022/06/16 00:38:07;;;;;;;;;;;14.20;99.90;;;;;;5093570;28;19921;-79
2022/06/16 00:40:33;;;;;;;;;;;14.00;99.90;;;;;;5093849;28;20002;-80
2022/06/16 00:42:58;;;;;;;;;;;13.90;99.90;;;;;;5093648;28;19908;-80
2022/06/16 00:45:43;;;;;;;;;;;14.00;99.90;;;;;;5092907;28;20766;-79
2022/06/16 00:48:15;;;;;;;;;;;14.00;99.90;;;;;;5092760;28;20361;-79
2022/06/16 00:50:41;;;;;;;;;;;14.00;99.90;;;;;;5093620;28;19962;-79
2022/06/16 00:53:07;;;;;;;;;;;14.10;99.90;;;;;;5091633;28;20308;-78
2022/06/16 00:55:33;;;;;;;;;;;14.10;99.90;;;;;;5092344;28;19916;-78
2022/06/16 00:58:00;;;;;;;;;;;14.00;99.90;;;;;;5093451;28;19908;-78
2022/06/16 01:00:45;;;;;;;;;;;14.00;99.90;;;;;;5092499;28;19912;-79
2022/06/16 01:03:11;;;;;;;;;;;14.00;99.90;;;;;;5093025;28;19908;-79
2022/06/16 01:05:37;;;;;;;;;;;14.00;99.90;;;;;;5093331;28;19915;-79
2022/06/16 01:08:04;;;;;;;;;;;13.90;99.90;;;;;;5091741;28;19909;-76
2022/06/16 01:10:37;;;;;;;;;;;13.80;99.90;;;;;;5091848;28;19908;-79
2022/06/16 01:13:43;;;;;;;;;;;13.70;99.90;;;;;;5092989;28;19911;-76
2022/06/16 01:16:19;;;;;;;;;;;13.80;99.90;;;;;;5049862;28;19919;-79
2022/06/16 01:19:05;;;;;;;;;;;13.80;99.90;;;;;;5050434;28;19909;-79
2022/06/16 01:21:37;;;;;;;;;;;13.70;99.90;;;;;;5050561;28;20386;-79
2022/06/16 01:24:02;;;;;;;;;;;13.60;99.90;;;;;;5050570;28;19908;-76
2022/06/16 01:26:28;;;;;;;;;;;13.60;99.90;;;;;;5049310;28;19908;-78
2022/06/16 01:29:02;;;;;;;;;;;13.60;99.90;;;;;;5049695;28;19919;-79
2022/06/16 01:31:33;;;;;;;;;;;13.60;99.90;;;;;;5049736;28;19920;-79
2022/06/16 01:34:10;;;;;;;;;;;13.60;99.90;;;;;;5050733;28;19913;-79
2022/06/16 01:36:44;;;;;;;;;;;13.60;99.90;;;;;;5050746;28;20008;-76
2022/06/16 01:39:13;;;;;;;;;;;13.60;99.90;;;;;;5033581;28;19913;-77
2022/06/16 01:41:41;;;;;;;;;;;13.70;99.90;;;;;;5051048;28;19933;-77
2022/06/16 01:44:09;;;;;;;;;;;13.60;99.90;;;;;;5050244;28;19913;-77
2022/06/16 01:46:37;;;;;;;;;;;13.50;99.90;;;;;;5067250;28;19915;-77
2022/06/16 01:49:05;;;;;;;;;;;13.50;99.90;;;;;;5091772;28;19908;-77
2022/06/16 01:51:31;;;;;;;;;;;13.50;99.90;;;;;;5092761;28;20422;-77
2022/06/16 01:54:03;;;;;;;;;;;13.60;99.90;;;;;;5092997;28;19912;-77
2022/06/16 01:56:31;;;;;;;;;;;13.50;99.90;;;;;;5092432;28;19912;-77
2022/06/16 01:59:06;;;;;;;;;;;13.50;99.90;;;;;;5093121;28;19908;-77
2022/06/16 02:01:36;;;;;;;;;;;13.50;99.90;;;;;;5092558;28;19909;-77
2022/06/16 02:04:06;;;;;;;;;;;13.60;99.90;;;;;;5092696;28;19915;-78
2022/06/16 02:06:35;;;;;;;;;;;13.50;99.90;;;;;;5092936;28;19916;-77
2022/06/16 02:09:12;;;;;;;;;;;13.50;99.90;;;;;;5093341;28;19971;-78
2022/06/16 02:11:38;;;;;;;;;;;13.50;99.90;;;;;;5093330;28;19915;-77
2022/06/16 02:14:06;;;;;;;;;;;13.50;99.90;;;;;;5092720;28;19916;-77
2022/06/16 02:16:33;;;;;;;;;;;13.50;99.90;;;;;;5093052;28;19919;-77
2022/06/16 02:19:00;;;;;;;;;;;13.50;99.90;;;;;;5092999;28;20003;-77
2022/06/16 02:21:58;;;;;;;;;;;13.50;99.90;;;;;;5092103;28;19912;-78
2022/06/16 02:24:25;;;;;;;;;;;13.60;99.90;;;;;;5068800;28;19912;-77
2022/06/16 02:26:52;;;;;;;;;;;13.60;99.90;;;;;;5092761;28;19908;-77
2022/06/16 02:29:26;;;;;;;;;;;13.60;99.90;;;;;;5092116;28;19916;-77
2022/06/16 02:32:15;;;;;;;;;;;13.60;99.90;;;;;;5092213;28;19928;-77
2022/06/16 02:34:47;;;;;;;;;;;13.60;99.90;;;;;;5086575;28;19912;-78
2022/06/16 02:37:33;;;;;;;;;;;13.60;99.90;;;;;;5092323;28;19916;-77
2022/06/16 02:40:04;;;;;;;;;;;13.60;99.90;;;;;;5074675;28;19908;-78
2022/06/16 02:42:39;;;;;;;;;;;13.50;99.90;;;;;;5095855;28;20813;-77
2022/06/16 02:45:10;;;;;;;;;;;13.60;99.90;;;;;;5096602;28;20258;-77
2022/06/16 02:47:48;;;;;;;;;;;13.60;99.90;;;;;;5096682;28;19915;-77
2022/06/16 02:50:27;;;;;;;;;;;13.60;99.90;;;;;;5095767;28;20015;-77
2022/06/16 02:53:00;;;;;;;;;;;13.60;99.90;;;;;;5096578;28;19908;-77
2022/06/16 02:55:30;;;;;;;;;;;13.70;99.90;;;;;;5095855;28;19916;-77
2022/06/16 02:57:58;;;;;;;;;;;13.80;99.90;;;;;;5101521;28;19908;-78
2022/06/16 03:00:26;;;;;;;;;;;13.80;99.90;;;;;;5104819;28;20297;-77
2022/06/16 03:02:51;;;;;;;;;;;13.90;99.90;;;;;;5096117;28;19953;-77
2022/06/16 03:05:17;;;;;;;;;;;14.00;99.90;;;;;;5095691;28;19998;-77
2022/06/16 03:07:43;;;;;;;;;;;14.00;99.90;;;;;;5096392;28;20356;-77
2022/06/16 03:10:10;;;;;;;;;;;13.90;99.90;;;;;;5094887;28;19908;-77
2022/06/16 03:12:36;;;;;;;;;;;13.90;99.90;;;;;;5095964;28;19908;-77
2022/06/16 03:15:01;;;;;;;;;;;13.90;99.90;;;;;;5095866;28;20358;-77
2022/06/16 03:17:29;;;;;;;;;;;13.90;99.90;;;;;;5095167;28;19912;-77
2022/06/16 03:19:54;;;;;;;;;;;13.90;99.90;;;;;;5095596;28;19943;-77
2022/06/16 03:22:20;;;;;;;;;;;13.90;99.90;;;;;;5095389;28;19931;-77
2022/06/16 03:24:46;;;;;;;;;;;13.80;99.90;;;;;;5095863;28;19908;-77
2022/06/16 03:27:11;;;;;;;;;;;13.90;99.90;;;;;;5095691;28;20007;-75
2022/06/16 03:29:37;;;;;;;;;;;13.90;99.90;;;;;;5095645;28;19940;-77
2022/06/16 03:32:03;;;;;;;;;;;13.90;99.90;;;;;;5095045;28;19934;-77
2022/06/16 03:34:30;;;;;;;;;;;13.90;99.90;;;;;;5095034;28;20336;-77
2022/06/16 03:36:55;;;;;;;;;;;14.00;99.90;;;;;;5095781;28;19920;-77
2022/06/16 03:39:21;;;;;;;;;;;14.00;99.90;;;;;;5094882;28;20345;-78
2022/06/16 03:41:46;;;;;;;;;;;14.00;99.90;;;;;;5095250;28;20023;-77
2022/06/16 03:44:12;;;;;;;;;;;14.10;99.90;;;;;;5095403;28;19908;-74
2022/06/16 03:46:37;;;;;;;;;;;14.20;99.90;;;;;;5095625;28;19909;-77
2022/06/16 03:49:04;;;;;;;;;;;14.30;99.90;;;;;;5105688;28;19930;-76
2022/06/16 03:51:30;;;;;;;;;;;14.30;99.90;;;;;;5098969;28;19922;-76
2022/06/16 03:53:56;;;;;;;;;;;14.20;99.90;;;;;;5095205;28;19912;-76
2022/06/16 03:56:22;;;;;;;;;;;14.20;99.90;;;;;;5094657;28;19919;-76
2022/06/16 03:58:50;;;;;;;;;;;14.20;99.90;;;;;;5095249;28;19908;-77
2022/06/16 04:01:16;;;;;;;;;;;14.20;99.90;;;;;;5094583;28;19908;-75
2022/06/16 04:03:59;;;;;;;;;;;14.10;99.90;;;;;;5095049;28;20000;-77
2022/06/16 04:06:25;;;;;;;;;;;14.10;99.90;;;;;;5094509;28;19908;-77
2022/06/16 04:08:51;;;;;;;;;;;14.20;99.90;;;;;;5095096;28;19915;-77
2022/06/16 04:11:28;;;;;;;;;;;14.30;99.90;;;;;;5094485;28;19909;-74
2022/06/16 04:13:57;;;;;;;;;;;14.20;99.90;;;;;;5094901;28;19920;-77
2022/06/16 04:16:23;;;;;;;;;;;14.20;99.90;;;;;;5093037;28;20281;-77
2022/06/16 04:18:49;;;;;;;;;;;14.20;99.90;;;;;;5094836;28;19908;-77
2022/06/16 04:21:14;;;;;;;;;;;14.20;99.90;;;;;;5093418;28;19934;-76
2022/06/16 04:23:40;;;;;;;;;;;14.10;99.90;;;;;;5094372;28;19951;-77
2022/06/16 04:26:06;;;;;;;;;;;14.20;99.90;;;;;;5094474;28;20373;-78
2022/06/16 04:28:31;;;;;;;;;;;14.20;99.90;;;;;;5093811;28;19934;-77
2022/06/16 04:30:57;;;;;;;;;;;14.20;99.90;;;;;;5094589;28;19967;-77
2022/06/16 04:33:23;;;;;;;;;;;14.20;99.90;;;;;;5092197;28;19923;-77
2022/06/16 04:35:48;;;;;;;;;;;14.20;99.90;;;;;;5094830;28;19912;-77
2022/06/16 04:38:14;;;;;;;;;;;14.20;99.90;;;;;;5102158;28;19912;-78
2022/06/16 04:40:40;;;;;;;;;;;14.30;99.90;;;;;;5104824;28;19908;-77
2022/06/16 04:43:05;;;;;;;;;;;14.30;99.90;;;;;;5094299;28;19951;-78
2022/06/16 04:45:31;;;;;;;;;;;14.30;99.90;;;;;;5093807;28;19908;-77
2022/06/16 04:47:56;;;;;;;;;;;14.30;99.90;;;;;;5093186;28;19908;-77
2022/06/16 04:50:22;;;;;;;;;;;14.30;99.90;;;;;;5093457;28;19908;-77
2022/06/16 04:52:48;;;;;;;;;;;14.40;99.90;;;;;;5093777;28;20419;-78
2022/06/16 04:55:14;;;;;;;;;;;14.40;99.90;;;;;;5094390;28;19916;-78
2022/06/16 04:57:40;;;;;;;;;;;14.40;99.90;;;;;;5093493;28;19919;-77
2022/06/16 05:00:06;;;;;;;;;;;14.40;99.90;;;;;;5093798;28;19908;-77
2022/06/16 05:02:32;;;;;;;;;;;14.40;99.90;;;;;;5093135;28;19995;-77
2022/06/16 05:04:57;;;;;;;;;;;14.40;99.90;;;;;;5093877;28;19970;-78
2022/06/16 05:07:23;;;;;;;;;;;14.40;99.90;;;;;;5093425;28;19919;-77
2022/06/16 05:09:48;;;;;;;;;;;14.40;99.90;;;;;;5093719;28;19908;-77
2022/06/16 05:12:14;;;;;;;;;;;14.40;99.90;;;;;;5093608;28;19909;-77
2022/06/16 05:14:40;;;;;;;;;;;14.40;99.90;;;;;;5093109;28;20747;-77
2022/06/16 05:17:05;;;;;;;;;;;14.30;99.90;;;;;;5093770;28;19919;-77
2022/06/16 05:19:31;;;;;;;;;;;14.30;99.90;;;;;;5093154;28;20002;-78
2022/06/16 05:21:58;;;;;;;;;;;14.30;99.90;;;;;;5093883;28;19940;-78
2022/06/16 05:24:24;;;;;;;;;;;14.40;99.90;;;;;;5092978;28;19998;-77
2022/06/16 05:26:49;;;;;;;;;;;14.30;99.90;;;;;;5094211;28;20389;-78
2022/06/16 05:29:15;;;;;;;;;;;14.50;99.90;;;;;;5093760;28;19951;-78
2022/06/16 05:31:40;;;;;;;;;;;14.50;99.90;;;;;;5092383;28;20532;-77
2022/06/16 05:34:06;;;;;;;;;;;14.60;99.90;;;;;;5092915;28;19925;-77
2022/06/16 05:36:32;;;;;;;;;;;14.70;99.90;;;;;;5092896;28;19912;-77
2022/06/16 05:38:57;;;;;;;;;;;14.70;99.90;;;;;;5092166;28;19908;-77
2022/06/16 05:41:23;;;;;;;;;;;14.70;99.90;;;;;;5092834;28;19965;-76
2022/06/16 05:43:48;;;;;;;;;;;14.80;99.90;;;;;;5093194;28;20252;-78
2022/06/16 05:46:16;;;;;;;;;;;14.80;99.90;;;;;;5093314;28;19999;-77
2022/06/16 05:48:41;;;;;;;;;;;14.80;99.90;;;;;;5091469;28;19914;-77
2022/06/16 05:51:09;;;;;;;;;;;14.90;99.90;;;;;;5093077;28;19912;-78
2022/06/16 05:53:35;;;;;;;;;;;15.00;99.90;;;;;;5092525;28;20325;-77
2022/06/16 05:56:01;;;;;;;;;;;15.30;99.90;;;;;;5092830;28;20277;-77
2022/06/16 05:58:27;;;;;;;;;;;15.40;99.90;;;;;;5092630;28;19912;-77
2022/06/16 06:00:52;;;;;;;;;;;15.60;99.90;;;;;;5093111;28;20265;-78
2022/06/16 06:03:18;;;;;;;;;;;15.80;99.90;;;;;;5092933;28;19909;-78
2022/06/16 06:05:43;;;;;;;;;;;16.10;99.90;;;;;;5091944;28;19916;-79
2022/06/16 06:16:43;;;;;;;;;;;16.60;99.90;;;;;;5090264;28;19919;-79
2022/06/16 06:19:31;;;;;;;;;;;16.50;99.90;;;;;;5097396;28;19909;-79
2022/06/16 06:22:11;;;;;;;;;;;16.50;99.90;;;;;;5097226;28;20357;-79
2022/06/16 06:24:37;;;;;;;;;;;16.50;99.90;;;;;;5096301;28;19916;-79
2022/06/16 06:27:05;;;;;;;;;;;16.60;99.90;;;;;;5096873;28;19989;-79
2022/06/16 06:29:30;;;;;;;;;;;16.60;99.90;;;;;;5096228;28;19908;-78
2022/06/16 06:31:57;;;;;;;;;;;16.60;99.90;;;;;;5096762;28;20250;-78
2022/06/16 06:34:23;;;;;;;;;;;16.70;99.90;;;;;;5096448;28;19912;-79
2022/06/16 06:36:49;;;;;;;;;;;16.80;99.90;;;;;;5095954;28;19935;-80
2022/06/16 06:39:15;;;;;;;;;;;16.80;99.90;;;;;;5096478;28;20377;-78
2022/06/16 06:41:40;;;;;;;;;;;16.80;99.90;;;;;;5096126;28;20420;-79
2022/06/16 06:44:06;;;;;;;;;;;16.80;99.90;;;;;;5096440;28;19998;-79
2022/06/16 06:46:31;;;;;;;;;;;16.80;99.90;;;;;;5096084;28;19908;-78
2022/06/16 06:48:57;;;;;;;;;;;17.00;99.90;;;;;;5096238;28;19909;-79
2022/06/16 06:51:22;;;;;;;;;;;17.00;99.90;;;;;;5095132;28;19908;-79
2022/06/16 06:53:48;;;;;;;;;;;17.20;99.90;;;;;;5095510;28;20416;-79
2022/06/16 06:56:14;;;;;;;;;;;17.40;99.90;;;;;;5100280;28;19916;-79
2022/06/16 06:58:40;;;;;;;;;;;17.70;99.90;;;;;;5095750;28;19934;-79
2022/06/16 07:01:06;;;;;;;;;;;17.90;99.90;;;;;;5095998;28;20273;-79
2022/06/16 07:03:32;;;;;;;;;;;18.10;99.90;;;;;;5095663;28;19914;-78
2022/06/16 07:06:00;;;;;;;;;;;18.30;99.90;;;;;;5095974;28;19990;-79
2022/06/16 07:08:26;;;;;;;;;;;18.40;99.90;;;;;;5095686;28;19908;-76
2022/06/16 07:10:52;;;;;;;;;;;18.50;99.90;;;;;;5095697;28;20311;-80
2022/06/16 07:13:17;;;;;;;;;;;18.50;99.90;;;;;;5095722;28;19915;-79
2022/06/16 07:15:43;;;;;;;;;;;18.50;99.90;;;;;;5095396;28;20018;-79
2022/06/16 07:18:08;;;;;;;;;;;18.50;99.90;;;;;;5096261;28;19912;-78
2022/06/16 07:20:34;;;;;;;;;;;18.60;99.90;;;;;;5093140;28;19930;-79
2022/06/16 07:23:00;;;;;;;;;;;18.40;99.90;;;;;;5095534;28;19909;-78
2022/06/16 07:25:25;;;;;;;;;;;18.60;99.90;;;;;;5094727;28;19944;-80
2022/06/16 07:27:53;;;;;;;;;;;18.60;99.90;;;;;;5095010;28;19916;-79
2022/06/16 07:30:19;;;;;;;;;;;18.50;99.90;;;;;;5095554;28;20003;-79
2022/06/16 07:32:46;;;;;;;;;;;18.40;99.90;;;;;;5095147;28;19976;-79
2022/06/16 07:35:12;;;;;;;;;;;18.20;99.90;;;;;;5095424;28;19921;-79
2022/06/16 07:37:38;;;;;;;;;;;18.20;99.90;;;;;;5095050;28;20280;-79
2022/06/16 07:40:04;;;;;;;;;;;18.40;99.90;;;;;;5095139;28;19912;-79
2022/06/16 07:42:30;;;;;;;;;;;18.30;99.90;;;;;;5094810;28;20321;-77
2022/06/16 07:44:55;;;;;;;;;;;18.40;99.90;;;;;;5095381;28;19977;-80
2022/06/16 07:47:21;;;;;;;;;;;18.50;99.90;;;;;;5095491;28;20312;-79
2022/06/16 07:49:49;;;;;;;;;;;18.60;99.90;;;;;;5094555;28;19908;-80
2022/06/16 07:52:15;;;;;;;;;;;18.70;99.90;;;;;;5097867;28;19919;-78
2022/06/16 07:54:40;;;;;;;;;;;19.10;99.90;;;;;;5080162;28;20281;-79
2022/06/16 07:57:06;;;;;;;;;;;19.10;99.90;;;;;;5095111;28;19927;-80
2022/06/16 07:59:32;;;;;;;;;;;19.20;99.90;;;;;;5093002;28;20413;-79
2022/06/16 08:01:57;;;;;;;;;;;19.20;99.90;;;;;;5094800;28;19987;-79
2022/06/16 08:04:23;;;;;;;;;;;19.30;99.90;;;;;;5094911;28;19908;-80
2022/06/16 08:06:49;;;;;;;;;;;19.40;99.90;;;;;;5093811;28;19912;-80
2022/06/16 08:09:15;;;;;;;;;;;19.20;99.90;;;;;;5094504;28;19908;-80
2022/06/16 08:14:24;;;;;;;;;;;19.30;99.90;;;;;;5094419;28;20010;-81
2022/06/16 08:16:50;;;;;;;;;;;19.30;99.90;;;;;;5093913;28;19940;-77
2022/06/16 08:19:15;;;;;;;;;;;19.30;99.90;;;;;;5094715;28;19951;-78
2022/06/16 08:21:41;;;;;;;;;;;19.40;99.90;;;;;;5094202;28;19908;-78
2022/06/16 08:24:06;;;;;;;;;;;19.40;99.90;;;;;;5094225;28;19959;-77
2022/06/16 08:26:34;;;;;;;;;;;19.50;99.90;;;;;;5093967;28;19908;-77
2022/06/16 08:28:59;;;;;;;;;;;19.50;99.90;;;;;;5097519;28;20049;-78
2022/06/16 08:31:25;;;;;;;;;;;19.60;99.90;;;;;;5099105;28;20380;-79
2022/06/16 08:33:51;;;;;;;;;;;19.50;99.90;;;;;;5096891;28;19963;-80
2022/06/16 08:36:18;;;;;;;;;;;19.50;99.90;;;;;;5094479;28;19957;-80
2022/06/16 08:38:43;;;;;;;;;;;19.40;99.90;;;;;;5093809;28;20005;-80
2022/06/16 08:41:15;;;;;;;;;;;19.40;99.90;;;;;;5093831;28;20372;-80
2022/06/16 08:43:49;;;;;;;;;;;19.20;99.90;;;;;;5093504;28;20353;-79
2022/06/16 08:46:16;;;;;;;;;;;19.20;99.90;;;;;;5094426;28;19916;-79
2022/06/16 08:49:02;;;;;;;;;;;19.20;99.90;;;;;;5092230;28;20003;-79
2022/06/16 08:51:33;;;;;;;;;;;19.20;99.90;;;;;;5093744;28;20391;-79
2022/06/16 08:53:58;;;;;;;;;;;19.30;99.90;;;;;;5093624;28;19912;-79
2022/06/16 08:56:30;;;;;;;;;;;19.40;99.90;;;;;;5094000;28;20387;-80
2022/06/16 08:59:03;;;;;;;;;;;19.50;99.90;;;;;;5093316;28;19908;-80
2022/06/16 09:01:48;;;;;;;;;;;19.50;99.90;;;;;;5092707;28;19908;-80
2022/06/16 09:04:17;;;;;;;;;;;19.70;99.90;;;;;;5089243;28;19915;-79
2022/06/16 09:07:06;;;;;;;;;;;19.80;99.90;;;;;;5092942;28;20369;-79
2022/06/16 09:12:40;;;;;;;;;;;20.00;99.90;;;;;;5093341;28;19915;-80
2022/06/16 09:15:24;;;;;;;;;;;20.00;99.90;;;;;;5093450;28;19912;-80
2022/06/16 09:18:01;;;;;;;;;;;20.10;99.90;;;;;;5092878;28;20003;-79
2022/06/16 09:20:26;;;;;;;;;;;20.30;99.90;;;;;;5093911;28;19908;-80
2022/06/16 09:23:20;;;;;;;;;;;20.40;99.90;;;;;;5092957;28;19969;-80
2022/06/16 09:25:52;;;;;;;;;;;20.50;99.90;;;;;;5092991;28;20392;-80
2022/06/16 09:28:27;;;;;;;;;;;20.80;99.90;;;;;;5092655;28;19955;-79
2022/06/16 09:30:54;;;;;;;;;;;20.90;99.90;;;;;;5091261;28;20361;-80
2022/06/16 09:33:23;;;;;;;;;;;21.00;99.90;;;;;;5093317;28;19947;-80
2022/06/16 09:35:58;;;;;;;;;;;21.20;99.90;;;;;;5092031;28;20373;-80
2022/06/16 09:38:39;;;;;;;;;;;21.10;99.90;;;;;;5091222;28;19999;-79
2022/06/16 09:44:14;;;;;;;;;;;21.10;99.90;;;;;;5091513;28;19977;-79
2022/06/16 09:46:44;;;;;;;;;;;21.00;99.90;;;;;;5089985;28;19909;-78
2022/06/16 09:49:13;;;;;;;;;;;20.90;99.90;;;;;;5091932;28;20373;-79
2022/06/16 09:51:47;;;;;;;;;;;20.80;99.90;;;;;;5089899;28;19908;-76
2022/06/16 09:54:15;;;;;;;;;;;20.90;99.90;;;;;;5092205;28;19958;-78
2022/06/16 09:56:40;;;;;;;;;;;20.90;99.90;;;;;;5091813;28;19920;-78
2022/06/16 09:59:08;;;;;;;;;;;21.00;99.90;;;;;;5092460;28;19908;-79
2022/06/16 10:01:46;;;;;;;;;;;21.00;99.90;;;;;;5091580;28;19912;-79
2022/06/16 10:04:12;;;;;;;;;;;21.00;99.90;;;;;;5092410;28;19957;-79
2022/06/16 10:06:41;;;;;;;;;;;21.00;99.90;;;;;;5091471;28;19908;-76
2022/06/16 10:09:09;;;;;;;;;;;21.00;99.90;;;;;;5092649;28;20387;-78
2022/06/16 10:11:37;;;;;;;;;;;21.00;99.90;;;;;;5093088;28;19915;-78
2022/06/16 10:14:15;;;;;;;;;;;21.00;99.90;;;;;;5092126;28;20265;-78
2022/06/16 10:16:52;;;;;;;;;;;21.10;99.90;;;;;;5092500;28;20061;-76
2022/06/16 10:19:19;;;;;;;;;;;21.20;99.90;;;;;;5093130;28;20346;-79
2022/06/16 10:21:45;;;;;;;;;;;21.30;99.90;;;;;;5092280;28;20021;-78
2022/06/16 10:24:11;;;;;;;;;;;21.40;99.90;;;;;;5092531;28;19908;-78
2022/06/16 10:26:37;;;;;;;;;;;21.50;99.90;;;;;;5092568;28;19939;-79
2022/06/16 10:29:03;;;;;;;;;;;21.60;99.90;;;;;;5092147;28;19908;-78
2022/06/16 10:31:45;;;;;;;;;;;21.80;99.90;;;;;;5092683;28;19920;-78
2022/06/16 10:34:17;;;;;;;;;;;21.90;99.90;;;;;;5092678;28;19912;-79
2022/06/16 10:36:46;;;;;;;;;;;21.80;99.90;;;;;;5091861;28;19919;-77
2022/06/16 10:39:21;;;;;;;;;;;21.90;99.90;;;;;;5093043;28;20003;-79
2022/06/16 10:41:51;;;;;;;;;;;21.80;99.90;;;;;;5092006;28;20246;-78
2022/06/16 10:44:18;;;;;;;;;;;21.80;99.90;;;;;;5092429;28;19959;-79
2022/06/16 10:46:47;;;;;;;;;;;21.80;99.90;;;;;;5092061;28;19912;-78
2022/06/16 10:49:20;;;;;;;;;;;21.90;99.90;;;;;;5092597;28;19931;-79
2022/06/16 10:51:54;;;;;;;;;;;22.00;99.90;;;;;;5091760;28;19964;-78
2022/06/16 10:54:19;;;;;;;;;;;22.10;99.90;;;;;;5092478;28;19916;-78
2022/06/16 10:56:45;;;;;;;;;;;22.20;99.90;;;;;;5091718;28;20365;-78
2022/06/16 10:59:14;;;;;;;;;;;22.30;99.90;;;;;;5092912;28;19926;-79
2022/06/16 11:01:47;;;;;;;;;;;22.30;99.90;;;;;;5097160;28;20129;-80
2022/06/16 11:04:16;;;;;;;;;;;22.30;99.90;;;;;;5077577;28;20003;-79
2022/06/16 11:06:52;;;;;;;;;;;22.30;99.90;;;;;;5074539;28;20276;-76
2022/06/16 11:09:19;;;;;;;;;;;22.30;99.90;;;;;;5075725;28;19908;-79
2022/06/16 11:11:52;;;;;;;;;;;22.20;99.90;;;;;;5074759;28;20345;-78
2022/06/16 11:14:21;;;;;;;;;;;22.20;99.90;;;;;;5075688;28;19960;-79
2022/06/16 11:16:54;;;;;;;;;;;22.20;99.90;;;;;;5075044;28;19940;-78
2022/06/16 11:19:28;;;;;;;;;;;22.20;99.90;;;;;;5075493;28;19987;-78
2022/06/16 11:21:53;;;;;;;;;;;22.20;99.90;;;;;;5075054;28;19908;-78
2022/06/16 11:24:24;;;;;;;;;;;22.30;99.90;;;;;;5075520;28;19916;-79
2022/06/16 11:26:52;;;;;;;;;;;22.40;99.90;;;;;;5074490;28;19908;-78
2022/06/16 11:29:23;;;;;;;;;;;22.50;99.90;;;;;;5073953;28;19916;-78
2022/06/16 11:32:00;;;;;;;;;;;22.60;99.90;;;;;;5074587;28;19921;-78
2022/06/16 11:34:27;;;;;;;;;;;22.70;99.90;;;;;;5075548;28;19924;-79
2022/06/16 11:37:12;;;;;;;;;;;22.80;99.90;;;;;;5074720;28;19970;-78
2022/06/16 11:39:37;;;;;;;;;;;23.00;99.90;;;;;;5074978;28;20281;-78
2022/06/16 11:42:03;;;;;;;;;;;23.10;99.90;;;;;;5074490;28;19908;-79
2022/06/16 11:44:32;;;;;;;;;;;23.20;99.90;;;;;;5075119;28;19915;-79
2022/06/16 11:47:11;;;;;;;;;;;23.10;99.90;;;;;;5074497;28;19916;-79
2022/06/16 11:49:36;;;;;;;;;;;23.20;99.90;;;;;;5074985;28;19919;-78
2022/06/16 11:52:08;;;;;;;;;;;23.20;99.90;;;;;;5074504;28;19909;-78
2022/06/16 11:54:36;;;;;;;;;;;23.50;99.90;;;;;;5074953;28;19948;-79
2022/06/16 11:57:07;;;;;;;;;;;23.60;99.90;;;;;;5074370;28;20370;-79
2022/06/16 11:59:52;;;;;;;;;;;23.60;99.90;;;;;;5074866;28;19913;-78
2022/06/16 12:02:36;;;;;;;;;;;23.60;99.90;;;;;;5074211;28;19961;-79
2022/06/16 12:05:11;;;;;;;;;;;23.60;99.90;;;;;;5073416;28;19913;-78
2022/06/16 12:07:55;;;;;;;;;;;23.60;99.90;;;;;;5072991;28;19909;-79
2022/06/16 12:10:39;;;;;;;;;;;23.60;99.90;;;;;;5074076;28;20002;-79
2022/06/16 12:13:07;;;;;;;;;;;23.60;99.90;;;;;;5073497;28;19908;-79
2022/06/16 12:15:39;;;;;;;;;;;23.50;99.90;;;;;;5072823;28;19912;-79
2022/06/16 12:18:10;;;;;;;;;;;23.60;99.90;;;;;;5073803;28;19918;-79
2022/06/16 12:20:39;;;;;;;;;;;23.70;99.90;;;;;;5074496;28;20281;-80
2022/06/16 12:23:05;;;;;;;;;;;23.90;99.90;;;;;;5073986;28;20049;-79
2022/06/16 12:25:39;;;;;;;;;;;24.00;99.90;;;;;;5074421;28;20353;-79
2022/06/16 12:28:12;;;;;;;;;;;24.10;99.90;;;;;;5073864;28;19912;-79
2022/06/16 12:30:43;;;;;;;;;;;24.10;99.90;;;;;;5073980;28;20393;-80
2022/06/16 12:33:09;;;;;;;;;;;24.00;99.90;;;;;;5073580;28;19911;-79
2022/06/16 12:35:41;;;;;;;;;;;24.00;99.90;;;;;;5073789;28;19912;-80
2022/06/16 12:38:16;;;;;;;;;;;24.10;99.90;;;;;;5073520;28;19982;-79
2022/06/16 12:40:43;;;;;;;;;;;24.10;99.90;;;;;;5074082;28;19909;-80
2022/06/16 12:43:15;;;;;;;;;;;23.70;99.90;;;;;;5071939;28;19919;-79
2022/06/16 12:45:43;;;;;;;;;;;23.50;99.90;;;;;;5072692;28;19962;-80
2022/06/16 12:48:26;;;;;;;;;;;23.50;99.90;;;;;;5073132;28;19920;-80
2022/06/16 12:50:57;;;;;;;;;;;23.40;99.90;;;;;;5073172;28;19908;-79
2022/06/16 12:53:27;;;;;;;;;;;23.50;99.90;;;;;;5073661;28;20338;-79
2022/06/16 12:55:56;;;;;;;;;;;23.50;99.90;;;;;;5073439;28;19916;-78
2022/06/16 12:58:24;;;;;;;;;;;23.60;99.90;;;;;;5072841;28;19912;-79
2022/06/16 13:00:51;;;;;;;;;;;23.70;99.90;;;;;;5073599;28;19908;-76
2022/06/16 13:03:19;;;;;;;;;;;23.70;99.90;;;;;;5073923;28;19915;-79
2022/06/16 13:05:45;;;;;;;;;;;23.80;99.90;;;;;;5073005;28;20049;-80
2022/06/16 13:08:12;;;;;;;;;;;23.90;99.90;;;;;;5072410;28;19911;-79
2022/06/16 13:10:39;;;;;;;;;;;23.90;99.90;;;;;;5073229;28;19908;-80
2022/06/16 13:13:06;;;;;;;;;;;24.00;99.90;;;;;;5072074;28;20064;-79
2022/06/16 13:15:37;;;;;;;;;;;24.00;99.90;;;;;;5073012;28;19919;-80
2022/06/16 13:18:13;;;;;;;;;;;24.00;99.90;;;;;;5071677;28;19920;-79
2022/06/16 13:20:40;;;;;;;;;;;24.10;99.90;;;;;;5072994;28;20322;-79
2022/06/16 13:23:11;;;;;;;;;;;24.10;99.90;;;;;;5073093;28;20362;-80
2022/06/16 13:25:46;;;;;;;;;;;24.20;99.90;;;;;;5073404;28;19920;-80
2022/06/16 13:28:24;;;;;;;;;;;24.30;99.90;;;;;;5072353;28;19920;-80
2022/06/16 13:31:01;;;;;;;;;;;24.40;99.90;;;;;;5072949;28;19920;-80
2022/06/16 13:33:52;;;;;;;;;;;24.60;99.90;;;;;;5072958;28;19908;-80
2022/06/16 13:36:18;;;;;;;;;;;24.80;99.90;;;;;;5063940;28;19917;-80
2022/06/16 13:38:45;;;;;;;;;;;24.80;99.90;;;;;;5073379;28;19919;-80
2022/06/16 13:41:29;;;;;;;;;;;24.80;99.90;;;;;;5072585;28;20365;-80
2022/06/16 13:44:05;;;;;;;;;;;24.80;99.90;;;;;;5072153;28;19999;-77
2022/06/16 13:46:49;;;;;;;;;;;24.50;99.90;;;;;;5072983;28;19932;-80
2022/06/16 13:49:47;;;;;;;;;;;24.40;99.90;;;;;;5072423;28;19912;-80
2022/06/16 13:52:12;;;;;;;;;;;24.20;99.90;;;;;;5059989;28;19909;-81
2022/06/16 13:54:38;;;;;;;;;;;24.00;99.90;;;;;;5072646;28;19919;-79
2022/06/16 13:57:18;;;;;;;;;;;23.60;99.90;;;;;;5072110;28;19916;-80
2022/06/16 13:59:44;;;;;;;;;;;23.50;99.90;;;;;;5072700;28;19909;-80
2022/06/16 14:02:09;;;;;;;;;;;23.40;99.90;;;;;;5072304;28;19915;-79
2022/06/16 14:04:42;;;;;;;;;;;23.40;99.90;;;;;;5072678;28;19999;-81
2022/06/16 14:07:09;;;;;;;;;;;23.40;99.90;;;;;;5072342;28;19974;-79
2022/06/16 14:09:37;;;;;;;;;;;23.30;99.90;;;;;;5072702;28;19959;-80
2022/06/16 14:12:04;;;;;;;;;;;23.40;99.90;;;;;;5072111;28;19912;-80
2022/06/16 14:14:48;;;;;;;;;;;23.40;99.90;;;;;;5072411;28;19912;-81
2022/06/16 14:17:33;;;;;;;;;;;23.50;99.90;;;;;;5073310;28;20019;-80
2022/06/16 14:20:01;;;;;;;;;;;23.40;99.90;;;;;;5077951;28;19916;-79
2022/06/16 14:22:29;;;;;;;;;;;23.50;99.90;;;;;;5074230;28;19908;-80
2022/06/16 14:25:13;;;;;;;;;;;23.60;99.90;;;;;;5072032;28;19913;-77
2022/06/16 14:27:43;;;;;;;;;;;23.60;99.90;;;;;;5072427;28;20284;-80
2022/06/16 14:30:12;;;;;;;;;;;23.60;99.90;;;;;;5072084;28;19912;-80
2022/06/16 14:32:44;;;;;;;;;;;23.70;99.90;;;;;;5071893;28;19924;-79
2022/06/16 14:35:28;;;;;;;;;;;23.80;99.90;;;;;;5073371;28;19913;-79
2022/06/16 14:37:54;;;;;;;;;;;23.90;99.90;;;;;;5075862;28;19916;-79
2022/06/16 14:40:23;;;;;;;;;;;24.00;99.90;;;;;;5075486;28;19919;-80
2022/06/16 14:42:50;;;;;;;;;;;24.00;99.90;;;;;;5075813;28;20311;-80
2022/06/16 14:45:30;;;;;;;;;;;23.90;99.90;;;;;;5074796;28;19955;-80
2022/06/16 14:48:02;;;;;;;;;;;23.90;99.90;;;;;;5075725;28;19909;-77